sensor_id;sensor_type;location;lat;lon;timestamp;pressure;altitude;pressure_sealevel;temperature;humidity
34506;BME280;20748;42.632;23.198;2022-12-10T00:02:15;91387.47;;;11.05;100.00
34506;BME280;20748;42.632;23.198;2022-12-10T00:04:48;91389.44;;;11.08;100.00
34506;BME280;20748;42.632;23.198;2022-12-10T00:07:21;91378.97;;;11.08;100.00
34506;BME280;20748;42.632;23.198;2022-12-10T00:09:53;91388.97;;;11.06;100.00
34506;BME280;20748;42.632;23.198;2022-12-10T00:12:25;91380.50;;;11.09;100.00
34506;BME280;20748;42.632;23.198;2022-12-10T00:14:59;91381.03;;;11.03;100.00
34506;BME280;20748;42.632;23.198;2022-12-10T00:17:31;91378.81;;;11.13;100.00
34506;BME280;20748;42.632;23.198;2022-12-10T00:20:04;91394.59;;;11.17;100.00
34506;BME280;20748;42.632;23.198;2022-12-10T00:22:38;91370.59;;;11.03;100.00
34506;BME280;20748;42.632;23.198;2022-12-10T00:25:10;91380.69;;;11.04;100.00
34506;BME280;20748;42.632;23.198;2022-12-10T00:27:42;91372.53;;;11.06;100.00
34506;BME280;20748;42.632;23.198;2022-12-10T00:30:16;91386.03;;;11.08;100.00
34506;BME280;20748;42.632;23.198;2022-12-10T00:32:48;91385.34;;;10.98;100.00
34506;BME280;20748;42.632;23.198;2022-12-10T00:35:21;91392.81;;;11.09;100.00
34506;BME280;20748;42.632;23.198;2022-12-10T00:37:53;91387.41;;;11.14;100.00
34506;BME280;20748;42.632;23.198;2022-12-10T00:40:26;91396.31;;;11.13;100.00
34506;BME280;20748;42.632;23.198;2022-12-10T00:42:59;91385.13;;;11.12;100.00
34506;BME280;20748;42.632;23.198;2022-12-10T00:45:32;91383.13;;;11.09;100.00
34506;BME280;20748;42.632;23.198;2022-12-10T00:48:05;91387.41;;;11.14;100.00
34506;BME280;20748;42.632;23.198;2022-12-10T00:50:37;91384.81;;;11.14;100.00
34506;BME280;20748;42.632;23.198;2022-12-10T00:53:10;91395.19;;;11.23;100.00
34506;BME280;20748;42.632;23.198;2022-12-10T00:55:43;91402.03;;;11.36;100.00
34506;BME280;20748;42.632;23.198;2022-12-10T00:58:15;91407.91;;;11.24;100.00
34506;BME280;20748;42.632;23.198;2022-12-10T01:00:48;91412.09;;;11.17;100.00
34506;BME280;20748;42.632;23.198;2022-12-10T01:03:22;91405.94;;;11.21;100.00
34506;BME280;20748;42.632;23.198;2022-12-10T01:05:54;91409.00;;;11.23;100.00
34506;BME280;20748;42.632;23.198;2022-12-10T01:08:26;91398.13;;;11.21;100.00
34506;BME280;20748;42.632;23.198;2022-12-10T01:10:59;91391.69;;;11.19;100.00
34506;BME280;20748;42.632;23.198;2022-12-10T01:13:31;91381.84;;;11.15;100.00
34506;BME280;20748;42.632;23.198;2022-12-10T01:16:06;91372.31;;;11.20;100.00
34506;BME280;20748;42.632;23.198;2022-12-10T01:18:39;91371.75;;;11.14;100.00
34506;BME280;20748;42.632;23.198;2022-12-10T01:21:15;91370.97;;;11.13;100.00
34506;BME280;20748;42.632;23.198;2022-12-10T01:23:49;91365.81;;;11.05;100.00
34506;BME280;20748;42.632;23.198;2022-12-10T01:26:26;91364.41;;;11.07;100.00
34506;BME280;20748;42.632;23.198;2022-12-10T01:28:59;91370.00;;;11.18;100.00
34506;BME280;20748;42.632;23.198;2022-12-10T01:31:34;91357.59;;;11.15;100.00
34506;BME280;20748;42.632;23.198;2022-12-10T01:34:09;91359.38;;;11.02;100.00
34506;BME280;20748;42.632;23.198;2022-12-10T01:36:44;91365.38;;;11.03;100.00
34506;BME280;20748;42.632;23.198;2022-12-10T01:39:17;91358.59;;;11.01;100.00
34506;BME280;20748;42.632;23.198;2022-12-10T01:41:52;91363.59;;;11.15;100.00
34506;BME280;20748;42.632;23.198;2022-12-10T01:44:56;91370.59;;;11.03;100.00
34506;BME280;20748;42.632;23.198;2022-12-10T01:47:31;91373.75;;;11.08;100.00
34506;BME280;20748;42.632;23.198;2022-12-10T01:50:05;91371.78;;;11.05;100.00
34506;BME280;20748;42.632;23.198;2022-12-10T01:52:41;91358.81;;;11.18;100.00
34506;BME280;20748;42.632;23.198;2022-12-10T01:55:41;91363.13;;;11.13;100.00
34506;BME280;20748;42.632;23.198;2022-12-10T01:58:15;91347.34;;;11.10;100.00
34506;BME280;20748;42.632;23.198;2022-12-10T02:00:56;91350.28;;;11.08;100.00
34506;BME280;20748;42.632;23.198;2022-12-10T02:03:40;91342.13;;;11.10;100.00
34506;BME280;20748;42.632;23.198;2022-12-10T02:06:26;91346.50;;;10.97;100.00
34506;BME280;20748;42.632;23.198;2022-12-10T02:09:09;91348.34;;;10.96;100.00
34506;BME280;20748;42.632;23.198;2022-12-10T02:11:47;91341.97;;;10.85;100.00
34506;BME280;20748;42.632;23.198;2022-12-10T02:14:26;91335.19;;;10.84;100.00
34506;BME280;20748;42.632;23.198;2022-12-10T02:17:06;91332.16;;;10.82;100.00
34506;BME280;20748;42.632;23.198;2022-12-10T02:20:02;91343.34;;;10.82;100.00
34506;BME280;20748;42.632;23.198;2022-12-10T02:22:41;91325.28;;;10.77;100.00
34506;BME280;20748;42.632;23.198;2022-12-10T02:25:19;91335.66;;;10.86;100.00
34506;BME280;20748;42.632;23.198;2022-12-10T02:27:58;91333.94;;;10.90;100.00
34506;BME280;20748;42.632;23.198;2022-12-10T02:30:34;91329.66;;;10.85;100.00
34506;BME280;20748;42.632;23.198;2022-12-10T02:33:08;91312.19;;;10.86;100.00
34506;BME280;20748;42.632;23.198;2022-12-10T02:35:43;91325.03;;;10.61;100.00
34506;BME280;20748;42.632;23.198;2022-12-10T02:38:20;91318.91;;;10.57;100.00
34506;BME280;20748;42.632;23.198;2022-12-10T02:40:58;91310.06;;;10.49;100.00
34506;BME280;20748;42.632;23.198;2022-12-10T02:43:33;91314.31;;;10.54;100.00
34506;BME280;20748;42.632;23.198;2022-12-10T02:46:06;91309.09;;;10.54;100.00
34506;BME280;20748;42.632;23.198;2022-12-10T02:48:41;91303.75;;;10.50;100.00
34506;BME280;20748;42.632;23.198;2022-12-10T02:51:14;91312.97;;;10.47;100.00
34506;BME280;20748;42.632;23.198;2022-12-10T02:53:46;91313.56;;;10.53;100.00
34506;BME280;20748;42.632;23.198;2022-12-10T02:56:23;91321.72;;;10.43;100.00
34506;BME280;20748;42.632;23.198;2022-12-10T02:59:06;91318.97;;;10.48;100.00
34506;BME280;20748;42.632;23.198;2022-12-10T03:01:52;91325.69;;;10.40;100.00
34506;BME280;20748;42.632;23.198;2022-12-10T03:04:32;91324.31;;;10.52;100.00
34506;BME280;20748;42.632;23.198;2022-12-10T03:07:10;91331.56;;;10.37;100.00
34506;BME280;20748;42.632;23.198;2022-12-10T03:09:47;91325.25;;;10.38;100.00
34506;BME280;20748;42.632;23.198;2022-12-10T03:12:25;91323.88;;;10.50;100.00
34506;BME280;20748;42.632;23.198;2022-12-10T03:15:04;91320.88;;;10.60;100.00
34506;BME280;20748;42.632;23.198;2022-12-10T03:17:39;91313.44;;;10.41;100.00
34506;BME280;20748;42.632;23.198;2022-12-10T03:20:15;91315.28;;;10.40;100.00
34506;BME280;20748;42.632;23.198;2022-12-10T03:22:49;91312.81;;;10.44;100.00
34506;BME280;20748;42.632;23.198;2022-12-10T03:25:24;91299.34;;;10.33;100.00
34506;BME280;20748;42.632;23.198;2022-12-10T03:27:58;91290.31;;;10.30;100.00
34506;BME280;20748;42.632;23.198;2022-12-10T03:30:32;91293.91;;;10.56;100.00
34506;BME280;20748;42.632;23.198;2022-12-10T03:33:06;91299.00;;;10.52;100.00
34506;BME280;20748;42.632;23.198;2022-12-10T03:35:40;91329.88;;;10.32;100.00
34506;BME280;20748;42.632;23.198;2022-12-10T03:38:14;91309.91;;;10.37;100.00
34506;BME280;20748;42.632;23.198;2022-12-10T03:40:46;91310.69;;;10.46;100.00
34506;BME280;20748;42.632;23.198;2022-12-10T03:43:21;91313.59;;;10.36;100.00
34506;BME280;20748;42.632;23.198;2022-12-10T03:45:54;91305.78;;;10.44;100.00
34506;BME280;20748;42.632;23.198;2022-12-10T03:48:27;91307.88;;;10.42;100.00
34506;BME280;20748;42.632;23.198;2022-12-10T03:50:59;91312.78;;;10.53;100.00
34506;BME280;20748;42.632;23.198;2022-12-10T03:53:32;91289.19;;;10.49;100.00
34506;BME280;20748;42.632;23.198;2022-12-10T03:56:04;91293.63;;;10.40;100.00
34506;BME280;20748;42.632;23.198;2022-12-10T03:58:36;91301.66;;;10.43;100.00
34506;BME280;20748;42.632;23.198;2022-12-10T04:01:09;91307.56;;;10.53;100.00
34506;BME280;20748;42.632;23.198;2022-12-10T04:03:43;91301.63;;;10.52;100.00
34506;BME280;20748;42.632;23.198;2022-12-10T04:06:18;91294.06;;;10.59;100.00
34506;BME280;20748;42.632;23.198;2022-12-10T04:08:52;91299.28;;;10.59;100.00
34506;BME280;20748;42.632;23.198;2022-12-10T04:11:30;91298.97;;;10.61;100.00
34506;BME280;20748;42.632;23.198;2022-12-10T04:14:02;91294.63;;;10.65;100.00
34506;BME280;20748;42.632;23.198;2022-12-10T04:16:53;91306.16;;;10.64;100.00
34506;BME280;20748;42.632;23.198;2022-12-10T04:19:26;91308.44;;;10.66;100.00
34506;BME280;20748;42.632;23.198;2022-12-10T04:21:59;91321.66;;;10.60;100.00
34506;BME280;20748;42.632;23.198;2022-12-10T04:24:49;91318.44;;;10.64;100.00
34506;BME280;20748;42.632;23.198;2022-12-10T04:27:40;91321.03;;;10.64;100.00
34506;BME280;20748;42.632;23.198;2022-12-10T04:30:12;91316.00;;;10.58;100.00
34506;BME280;20748;42.632;23.198;2022-12-10T04:32:45;91330.09;;;10.57;100.00
34506;BME280;20748;42.632;23.198;2022-12-10T04:35:18;91324.31;;;10.52;100.00
34506;BME280;20748;42.632;23.198;2022-12-10T04:37:50;91334.78;;;10.73;100.00
34506;BME280;20748;42.632;23.198;2022-12-10T04:40:23;91336.22;;;10.61;100.00
34506;BME280;20748;42.632;23.198;2022-12-10T04:42:55;91328.59;;;10.47;100.00
34506;BME280;20748;42.632;23.198;2022-12-10T04:45:27;91321.88;;;10.46;100.00
34506;BME280;20748;42.632;23.198;2022-12-10T04:48:00;91319.41;;;10.41;100.00
34506;BME280;20748;42.632;23.198;2022-12-10T04:50:33;91329.88;;;10.32;100.00
34506;BME280;20748;42.632;23.198;2022-12-10T04:53:05;91322.03;;;10.32;100.00
34506;BME280;20748;42.632;23.198;2022-12-10T04:55:38;91318.88;;;10.18;100.00
34506;BME280;20748;42.632;23.198;2022-12-10T04:58:10;91329.59;;;10.25;100.00
34506;BME280;20748;42.632;23.198;2022-12-10T05:00:43;91316.41;;;10.21;100.00
34506;BME280;20748;42.632;23.198;2022-12-10T05:03:15;91317.34;;;10.17;100.00
34506;BME280;20748;42.632;23.198;2022-12-10T05:05:48;91322.13;;;10.06;100.00
34506;BME280;20748;42.632;23.198;2022-12-10T05:08:21;91319.38;;;10.02;100.00
34506;BME280;20748;42.632;23.198;2022-12-10T05:10:53;91312.78;;;10.05;100.00
34506;BME280;20748;42.632;23.198;2022-12-10T05:13:26;91306.03;;;10.04;100.00
34506;BME280;20748;42.632;23.198;2022-12-10T05:15:59;91302.19;;;10.10;100.00
34506;BME280;20748;42.632;23.198;2022-12-10T05:18:33;91300.03;;;10.12;100.00
34506;BME280;20748;42.632;23.198;2022-12-10T05:21:08;91295.84;;;10.29;100.00
34506;BME280;20748;42.632;23.198;2022-12-10T05:23:43;91298.19;;;10.13;100.00
34506;BME280;20748;42.632;23.198;2022-12-10T05:26:17;91292.19;;;10.21;100.00
34506;BME280;20748;42.632;23.198;2022-12-10T05:28:51;91298.75;;;10.27;100.00
34506;BME280;20748;42.632;23.198;2022-12-10T05:31:26;91297.25;;;10.17;100.00
34506;BME280;20748;42.632;23.198;2022-12-10T05:33:59;91309.53;;;10.17;100.00
34506;BME280;20748;42.632;23.198;2022-12-10T05:36:32;91305.81;;;10.27;100.00
34506;BME280;20748;42.632;23.198;2022-12-10T05:39:04;91309.94;;;10.28;100.00
34506;BME280;20748;42.632;23.198;2022-12-10T05:41:38;91304.44;;;10.29;100.00
34506;BME280;20748;42.632;23.198;2022-12-10T05:44:11;91313.09;;;10.42;100.00
34506;BME280;20748;42.632;23.198;2022-12-10T05:46:43;91315.56;;;10.39;100.00
34506;BME280;20748;42.632;23.198;2022-12-10T05:49:16;91312.81;;;10.44;100.00
34506;BME280;20748;42.632;23.198;2022-12-10T05:51:57;91313.75;;;10.48;100.00
34506;BME280;20748;42.632;23.198;2022-12-10T05:54:29;91314.50;;;10.48;100.00
34506;BME280;20748;42.632;23.198;2022-12-10T05:57:01;91319.34;;;10.59;100.00
34506;BME280;20748;42.632;23.198;2022-12-10T05:59:34;91315.56;;;10.47;100.00
34506;BME280;20748;42.632;23.198;2022-12-10T06:02:06;91315.31;;;10.31;100.00
34506;BME280;20748;42.632;23.198;2022-12-10T06:04:39;91320.94;;;10.42;100.00
34506;BME280;20748;42.632;23.198;2022-12-10T06:07:12;91325.13;;;10.43;100.00
34506;BME280;20748;42.632;23.198;2022-12-10T06:09:44;91328.47;;;10.35;100.00
34506;BME280;20748;42.632;23.198;2022-12-10T06:12:17;91309.31;;;10.31;100.00
34506;BME280;20748;42.632;23.198;2022-12-10T06:14:49;91319.31;;;10.20;100.00
34506;BME280;20748;42.632;23.198;2022-12-10T06:17:22;91310.13;;;10.23;100.00
34506;BME280;20748;42.632;23.198;2022-12-10T06:19:54;91326.41;;;10.19;100.00
34506;BME280;20748;42.632;23.198;2022-12-10T06:22:27;91314.00;;;10.07;100.00
34506;BME280;20748;42.632;23.198;2022-12-10T06:24:59;91326.09;;;10.12;100.00
34506;BME280;20748;42.632;23.198;2022-12-10T06:27:32;91314.91;;;10.12;100.00
34506;BME280;20748;42.632;23.198;2022-12-10T06:30:05;91302.53;;;10.00;100.00
34506;BME280;20748;42.632;23.198;2022-12-10T06:32:38;91298.09;;;10.00;100.00
34506;BME280;20748;42.632;23.198;2022-12-10T06:35:11;91288.56;;;9.96;100.00
34506;BME280;20748;42.632;23.198;2022-12-10T06:37:44;91309.88;;;10.06;100.00
34506;BME280;20748;42.632;23.198;2022-12-10T06:40:17;91321.69;;;10.04;100.00
34506;BME280;20748;42.632;23.198;2022-12-10T06:42:50;91316.47;;;10.04;100.00
34506;BME280;20748;42.632;23.198;2022-12-10T06:45:23;91333.78;;;10.00;100.00
34506;BME280;20748;42.632;23.198;2022-12-10T06:47:55;91327.84;;;9.90;100.00
34506;BME280;20748;42.632;23.198;2022-12-10T06:50:28;91330.88;;;10.01;100.00
34506;BME280;20748;42.632;23.198;2022-12-10T06:53:01;91341.00;;;10.03;100.00
34506;BME280;20748;42.632;23.198;2022-12-10T06:55:36;91332.56;;;9.97;100.00
34506;BME280;20748;42.632;23.198;2022-12-10T06:58:09;91331.94;;;10.09;100.00
34506;BME280;20748;42.632;23.198;2022-12-10T07:00:41;91336.22;;;10.14;100.00
34506;BME280;20748;42.632;23.198;2022-12-10T07:03:14;91342.53;;;10.04;100.00
34506;BME280;20748;42.632;23.198;2022-12-10T07:05:46;91330.72;;;10.06;100.00
34506;BME280;20748;42.632;23.198;2022-12-10T07:08:20;91330.72;;;10.06;100.00
34506;BME280;20748;42.632;23.198;2022-12-10T07:10:55;91333.75;;;10.17;100.00
34506;BME280;20748;42.632;23.198;2022-12-10T07:13:27;91321.75;;;10.25;100.00
34506;BME280;20748;42.632;23.198;2022-12-10T07:16:02;91315.13;;;10.37;100.00
34506;BME280;20748;42.632;23.198;2022-12-10T07:18:35;91313.31;;;10.46;100.00
34506;BME280;20748;42.632;23.198;2022-12-10T07:21:15;91308.09;;;10.37;100.00
34506;BME280;20748;42.632;23.198;2022-12-10T07:23:48;91299.38;;;10.24;100.00
34506;BME280;20748;42.632;23.198;2022-12-10T07:26:21;91281.06;;;10.42;100.00
34506;BME280;20748;42.632;23.198;2022-12-10T07:28:54;91290.84;;;10.54;100.00
34506;BME280;20748;42.632;23.198;2022-12-10T07:31:28;91295.56;;;10.60;100.00
34506;BME280;20748;42.632;23.198;2022-12-10T07:34:01;91297.69;;;10.67;100.00
34506;BME280;20748;42.632;23.198;2022-12-10T07:36:33;91304.22;;;10.82;100.00
34506;BME280;20748;42.632;23.198;2022-12-10T07:39:07;91302.72;;;10.72;100.00
34506;BME280;20748;42.632;23.198;2022-12-10T07:41:40;91298.13;;;10.69;100.00
34506;BME280;20748;42.632;23.198;2022-12-10T07:44:12;91314.38;;;10.75;100.00
34506;BME280;20748;42.632;23.198;2022-12-10T07:46:45;91306.53;;;10.75;100.00
34506;BME280;20748;42.632;23.198;2022-12-10T07:49:18;91302.34;;;10.83;100.00
34506;BME280;20748;42.632;23.198;2022-12-10T07:51:51;91299.81;;;10.95;100.00
34506;BME280;20748;42.632;23.198;2022-12-10T07:54:24;91305.94;;;10.99;100.00
34506;BME280;20748;42.632;23.198;2022-12-10T07:56:56;91305.94;;;10.99;100.00
34506;BME280;20748;42.632;23.198;2022-12-10T07:59:29;91298.84;;;11.09;100.00
34506;BME280;20748;42.632;23.198;2022-12-10T08:02:02;91297.72;;;10.88;100.00
34506;BME280;20748;42.632;23.198;2022-12-10T08:04:40;91285.38;;;10.98;100.00
34506;BME280;20748;42.632;23.198;2022-12-10T08:07:12;91279.72;;;10.96;100.00
34506;BME280;20748;42.632;23.198;2022-12-10T08:09:46;91265.53;;;11.06;100.00
34506;BME280;20748;42.632;23.198;2022-12-10T08:12:18;91278.19;;;11.16;100.00
34506;BME280;20748;42.632;23.198;2022-12-10T08:14:50;91257.44;;;10.98;100.00
34506;BME280;20748;42.632;23.198;2022-12-10T08:17:23;91269.34;;;11.08;100.00
34506;BME280;20748;42.632;23.198;2022-12-10T08:19:55;91276.09;;;11.09;100.00
34506;BME280;20748;42.632;23.198;2022-12-10T08:22:28;91284.44;;;11.24;100.00
34506;BME280;20748;42.632;23.198;2022-12-10T08:25:01;91266.09;;;11.33;100.00
34506;BME280;20748;42.632;23.198;2022-12-10T08:27:34;91263.03;;;11.31;100.00
34506;BME280;20748;42.632;23.198;2022-12-10T08:30:07;91254.69;;;11.37;100.00
34506;BME280;20748;42.632;23.198;2022-12-10T08:32:40;91248.38;;;11.38;100.00
34506;BME280;20748;42.632;23.198;2022-12-10T08:35:13;91246.34;;;11.44;100.00
34506;BME280;20748;42.632;23.198;2022-12-10T08:37:45;91240.84;;;11.37;100.00
34506;BME280;20748;42.632;23.198;2022-12-10T08:40:18;91249.63;;;11.53;100.00
34506;BME280;20748;42.632;23.198;2022-12-10T08:42:51;91251.47;;;11.53;100.00
34506;BME280;20748;42.632;23.198;2022-12-10T08:45:28;91277.31;;;11.67;100.00
34506;BME280;20748;42.632;23.198;2022-12-10T08:48:02;91275.16;;;11.69;100.00
34506;BME280;20748;42.632;23.198;2022-12-10T08:50:35;91264.41;;;11.83;100.00
34506;BME280;20748;42.632;23.198;2022-12-10T08:53:08;91262.75;;;11.78;100.00
34506;BME280;20748;42.632;23.198;2022-12-10T08:55:41;91260.81;;;11.88;100.00
34506;BME280;20748;42.632;23.198;2022-12-10T08:58:20;91251.38;;;11.95;100.00
34506;BME280;20748;42.632;23.198;2022-12-10T09:00:52;91245.25;;;11.91;100.00
34506;BME280;20748;42.632;23.198;2022-12-10T09:03:25;91240.22;;;11.86;100.00
34506;BME280;20748;42.632;23.198;2022-12-10T09:06:02;91236.22;;;12.01;100.00
34506;BME280;20748;42.632;23.198;2022-12-10T09:08:34;91239.94;;;12.00;100.00
34506;BME280;20748;42.632;23.198;2022-12-10T09:11:10;91224.44;;;11.95;100.00
34506;BME280;20748;42.632;23.198;2022-12-10T09:13:42;91236.22;;;11.89;100.00
34506;BME280;20748;42.632;23.198;2022-12-10T09:16:15;91224.50;;;12.07;100.00
34506;BME280;20748;42.632;23.198;2022-12-10T09:18:48;91223.97;;;12.14;100.00
34506;BME280;20748;42.632;23.198;2022-12-10T09:21:20;91228.66;;;12.08;100.00
34506;BME280;20748;42.632;23.198;2022-12-10T09:23:53;91221.44;;;12.18;100.00
34506;BME280;20748;42.632;23.198;2022-12-10T09:26:27;91215.59;;;12.08;100.00
34506;BME280;20748;42.632;23.198;2022-12-10T09:28:59;91210.53;;;12.03;100.00
34506;BME280;20748;42.632;23.198;2022-12-10T09:31:32;91197.28;;;12.21;100.00
34506;BME280;20748;42.632;23.198;2022-12-10T09:34:04;91195.97;;;12.27;100.00
34506;BME280;20748;42.632;23.198;2022-12-10T09:36:37;91199.44;;;12.56;100.00
34506;BME280;20748;42.632;23.198;2022-12-10T09:39:09;91199.75;;;12.55;100.00
34506;BME280;20748;42.632;23.198;2022-12-10T09:42:01;91195.16;;;12.64;100.00
34506;BME280;20748;42.632;23.198;2022-12-10T09:44:46;91191.53;;;12.81;100.00
34506;BME280;20748;42.632;23.198;2022-12-10T09:47:24;91187.16;;;12.85;100.00
34506;BME280;20748;42.632;23.198;2022-12-10T09:50:04;91176.56;;;12.94;100.00
34506;BME280;20748;42.632;23.198;2022-12-10T09:52:46;91182.06;;;13.05;100.00
34506;BME280;20748;42.632;23.198;2022-12-10T09:55:33;91184.56;;;13.14;99.60
34506;BME280;20748;42.632;23.198;2022-12-10T09:58:15;91185.28;;;13.27;100.00
34506;BME280;20748;42.632;23.198;2022-12-10T10:00:51;91188.56;;;13.52;99.48
34506;BME280;20748;42.632;23.198;2022-12-10T10:03:26;91185.88;;;13.65;97.71
34506;BME280;20748;42.632;23.198;2022-12-10T10:05:59;91173.84;;;13.48;96.33
34506;BME280;20748;42.632;23.198;2022-12-10T10:08:34;91176.25;;;13.69;96.30
34506;BME280;20748;42.632;23.198;2022-12-10T10:11:11;91177.19;;;13.77;95.23
34506;BME280;20748;42.632;23.198;2022-12-10T10:13:51;91169.72;;;13.63;95.38
34506;BME280;20748;42.632;23.198;2022-12-10T10:16:26;91174.47;;;13.57;96.39
34506;BME280;20748;42.632;23.198;2022-12-10T10:19:02;91169.47;;;13.68;96.23
34506;BME280;20748;42.632;23.198;2022-12-10T10:21:38;91150.09;;;13.73;96.68
34506;BME280;20748;42.632;23.198;2022-12-10T10:24:14;91146.56;;;13.81;96.63
34506;BME280;20748;42.632;23.198;2022-12-10T10:26:48;91135.84;;;13.86;94.38
34506;BME280;20748;42.632;23.198;2022-12-10T10:29:23;91123.38;;;13.99;95.14
34506;BME280;20748;42.632;23.198;2022-12-10T10:32:13;91114.75;;;13.99;94.04
34506;BME280;20748;42.632;23.198;2022-12-10T10:34:52;91120.69;;;13.95;91.48
34506;BME280;20748;42.632;23.198;2022-12-10T10:37:26;91119.56;;;14.13;92.50
34506;BME280;20748;42.632;23.198;2022-12-10T10:40:00;91139.97;;;14.03;91.55
34506;BME280;20748;42.632;23.198;2022-12-10T10:42:35;91122.81;;;13.90;92.57
34506;BME280;20748;42.632;23.198;2022-12-10T10:45:35;91121.97;;;13.86;92.44
34506;BME280;20748;42.632;23.198;2022-12-10T10:48:12;91124.56;;;14.02;93.56
34506;BME280;20748;42.632;23.198;2022-12-10T10:50:47;91128.13;;;13.93;91.57
34506;BME280;20748;42.632;23.198;2022-12-10T10:53:22;91131.50;;;13.78;92.66
34506;BME280;20748;42.632;23.198;2022-12-10T10:55:58;91123.91;;;13.73;95.27
34506;BME280;20748;42.632;23.198;2022-12-10T10:58:31;91127.88;;;13.82;93.61
34506;BME280;20748;42.632;23.198;2022-12-10T11:01:06;91126.25;;;13.78;95.71
34506;BME280;20748;42.632;23.198;2022-12-10T11:03:46;91121.28;;;13.73;93.21
34506;BME280;20748;42.632;23.198;2022-12-10T11:06:19;91113.16;;;13.78;94.84
34506;BME280;20748;42.632;23.198;2022-12-10T11:08:56;91105.91;;;13.87;94.13
34506;BME280;20748;42.632;23.198;2022-12-10T11:11:32;91099.91;;;13.71;93.83
34506;BME280;20748;42.632;23.198;2022-12-10T11:14:23;91078.56;;;13.88;95.01
34506;BME280;20748;42.632;23.198;2022-12-10T11:17:07;91080.13;;;14.09;93.33
34506;BME280;20748;42.632;23.198;2022-12-10T11:19:53;91074.88;;;14.09;93.69
34506;BME280;20748;42.632;23.198;2022-12-10T11:22:28;91082.50;;;14.14;92.74
34506;BME280;20748;42.632;23.198;2022-12-10T11:25:00;91073.53;;;14.15;92.15
34506;BME280;20748;42.632;23.198;2022-12-10T11:27:42;91070.47;;;14.13;94.49
34506;BME280;20748;42.632;23.198;2022-12-10T11:30:22;91067.00;;;14.09;93.15
34506;BME280;20748;42.632;23.198;2022-12-10T11:33:15;91072.63;;;14.07;92.82
34506;BME280;20748;42.632;23.198;2022-12-10T11:35:55;91075.88;;;13.85;94.49
34506;BME280;20748;42.632;23.198;2022-12-10T11:38:34;91073.75;;;13.90;94.35
34506;BME280;20748;42.632;23.198;2022-12-10T11:41:15;91080.28;;;13.64;94.32
34506;BME280;20748;42.632;23.198;2022-12-10T11:43:54;91084.00;;;13.63;96.74
34506;BME280;20748;42.632;23.198;2022-12-10T11:46:54;91083.66;;;13.65;97.45
34506;BME280;20748;42.632;23.198;2022-12-10T11:49:34;91071.47;;;13.73;96.94
34506;BME280;20748;42.632;23.198;2022-12-10T11:52:16;91058.97;;;13.82;96.09
34506;BME280;20748;42.632;23.198;2022-12-10T11:55:02;91057.53;;;13.52;97.27
34506;BME280;20748;42.632;23.198;2022-12-10T11:57:49;91048.50;;;13.66;98.55
34506;BME280;20748;42.632;23.198;2022-12-10T12:00:24;91050.53;;;13.56;97.57
34506;BME280;20748;42.632;23.198;2022-12-10T12:03:16;91055.94;;;13.48;99.19
34506;BME280;20748;42.632;23.198;2022-12-10T12:06:07;91044.88;;;13.54;98.71
34506;BME280;20748;42.632;23.198;2022-12-10T12:08:49;91049.94;;;13.47;97.87
34506;BME280;20748;42.632;23.198;2022-12-10T12:11:34;91037.00;;;13.54;97.17
34506;BME280;20748;42.632;23.198;2022-12-10T12:14:13;91032.75;;;13.50;96.73
34506;BME280;20748;42.632;23.198;2022-12-10T12:16:54;91028.78;;;13.40;97.40
34506;BME280;20748;42.632;23.198;2022-12-10T12:19:34;91028.84;;;13.43;97.45
34506;BME280;20748;42.632;23.198;2022-12-10T12:22:14;91013.25;;;13.47;97.38
34506;BME280;20748;42.632;23.198;2022-12-10T12:24:48;91020.25;;;13.43;95.64
34506;BME280;20748;42.632;23.198;2022-12-10T12:27:26;91014.16;;;13.39;95.56
34506;BME280;20748;42.632;23.198;2022-12-10T12:30:04;91007.00;;;13.36;96.28
34506;BME280;20748;42.632;23.198;2022-12-10T12:32:44;90995.41;;;13.53;96.63
34506;BME280;20748;42.632;23.198;2022-12-10T12:35:21;90989.91;;;13.58;96.06
34506;BME280;20748;42.632;23.198;2022-12-10T12:37:58;90983.25;;;13.61;94.32
34506;BME280;20748;42.632;23.198;2022-12-10T12:40:34;90981.13;;;13.50;95.81
34506;BME280;20748;42.632;23.198;2022-12-10T12:43:12;90981.03;;;13.63;94.63
34506;BME280;20748;42.632;23.198;2022-12-10T12:45:49;90979.59;;;13.65;95.19
34506;BME280;20748;42.632;23.198;2022-12-10T12:48:29;90978.81;;;13.65;94.27
34506;BME280;20748;42.632;23.198;2022-12-10T12:51:09;90977.88;;;13.73;95.21
34506;BME280;20748;42.632;23.198;2022-12-10T12:53:43;90977.72;;;13.66;96.47
34506;BME280;20748;42.632;23.198;2022-12-10T12:56:23;90971.31;;;13.63;96.41
34506;BME280;20748;42.632;23.198;2022-12-10T12:59:04;90980.78;;;13.52;96.97
34506;BME280;20748;42.632;23.198;2022-12-10T13:01:47;90970.81;;;13.58;96.40
34506;BME280;20748;42.632;23.198;2022-12-10T13:04:22;90951.38;;;13.42;96.16
34506;BME280;20748;42.632;23.198;2022-12-10T13:07:31;90945.13;;;13.47;95.57
34506;BME280;20748;42.632;23.198;2022-12-10T13:10:44;90948.19;;;13.33;96.60
34506;BME280;20748;42.632;23.198;2022-12-10T13:13:24;90931.75;;;13.36;96.82
34506;BME280;20748;42.632;23.198;2022-12-10T13:19:25;90913.19;;;13.25;94.42
34506;BME280;20748;42.632;23.198;2022-12-10T13:22:01;90920.81;;;13.14;95.29
34506;BME280;20748;42.632;23.198;2022-12-10T13:27:55;90920.34;;;12.93;96.46
34506;BME280;20748;42.632;23.198;2022-12-10T13:30:34;90907.56;;;13.07;95.83
34506;BME280;20748;42.632;23.198;2022-12-10T13:33:17;90910.50;;;13.06;94.93
34506;BME280;20748;42.632;23.198;2022-12-10T13:35:56;90908.06;;;13.13;94.65